createdAt,value
2022-08-11T00:01:08.845Z,26.73
2022-08-11T00:03:43.743Z,26.88
2022-08-11T00:06:11.534Z,25.84
2022-08-11T00:08:38.749Z,26.38
2022-08-11T00:11:08.622Z,27.18
2022-08-11T00:13:45.684Z,26.67
2022-08-11T00:16:25.208Z,26.13
2022-08-11T00:18:55.439Z,26.05
2022-08-11T00:22:02.820Z,26.13
2022-08-11T00:24:11.009Z,26.20
2022-08-11T00:26:37.938Z,26.34
2022-08-11T00:29:12.076Z,25.76
2022-08-11T00:31:46.108Z,26.58
2022-08-11T00:34:13.757Z,25.62
2022-08-11T00:36:50.420Z,26.40
2022-08-11T00:39:21.319Z,26.32
2022-08-11T00:42:10.862Z,26.38
2022-08-11T00:44:55.098Z,25.94
2022-08-11T00:48:00.216Z,26.39
2022-08-11T00:50:42.646Z,26.58
2022-08-11T00:53:12.244Z,26.92
2022-08-11T00:55:55.784Z,26.89
2022-08-11T00:59:02.263Z,26.22
2022-08-11T01:01:52.887Z,25.87
2022-08-11T01:04:38.132Z,26.80
2022-08-11T01:08:01.609Z,26.76
2022-08-11T01:10:49.050Z,26.62
2022-08-11T01:13:47.312Z,26.55
2022-08-11T01:16:32.587Z,26.49
2022-08-11T01:19:05.184Z,26.48
2022-08-11T01:21:38.139Z,26.48
2022-08-11T01:24:47.711Z,25.02
2022-08-11T01:27:29.242Z,25.88
2022-08-11T01:30:47.252Z,26.35
2022-08-11T01:33:13.961Z,26.33
2022-08-11T01:35:59.978Z,26.30
2022-08-11T01:38:49.859Z,26.28
2022-08-11T01:41:55.480Z,25.96
2022-08-11T01:44:46.653Z,26.28
2022-08-11T01:47:53.169Z,26.01
2022-08-11T01:50:48.898Z,26.31
2022-08-11T01:53:29.748Z,26.31
2022-08-11T01:56:18.090Z,26.27
2022-08-11T01:59:03.750Z,26.26
2022-08-11T02:01:36.352Z,26.25
2022-08-11T02:04:33.656Z,24.85
2022-08-11T02:07:21.958Z,25.58
2022-08-11T02:10:42.189Z,26.22
2022-08-11T02:13:36.725Z,26.12
2022-08-11T02:16:17.116Z,26.21
2022-08-11T02:19:09.446Z,25.77
2022-08-11T02:22:05.987Z,25.39
2022-08-11T02:24:44.864Z,25.89
2022-08-11T02:27:20.974Z,25.81
2022-08-11T02:30:08.415Z,25.90
2022-08-11T02:33:04.874Z,25.85
2022-08-11T02:35:47.346Z,25.72
2022-08-11T02:38:33.676Z,25.61
2022-08-11T02:41:02.260Z,25.77
2022-08-11T02:44:02.467Z,25.74
2022-08-11T02:46:47.655Z,25.32
2022-08-11T02:50:02.529Z,25.26
2022-08-11T02:52:59.076Z,24.19
2022-08-11T02:55:57.147Z,25.64
2022-08-11T02:59:18.656Z,25.37
2022-08-11T03:02:02.443Z,25.03
2022-08-11T03:04:40.945Z,25.00
2022-08-11T03:07:28.537Z,24.95
2022-08-11T03:10:17.433Z,24.90
2022-08-11T03:13:14.200Z,24.73
2022-08-11T03:16:08.159Z,24.52
2022-08-11T03:18:55.408Z,24.03
2022-08-11T03:22:03.326Z,23.23
2022-08-11T03:24:29.253Z,24.07
2022-08-11T03:27:08.688Z,24.87
2022-08-11T03:30:07.836Z,24.70
2022-08-11T03:33:19.399Z,24.87
2022-08-11T03:36:04.001Z,24.87
2022-08-11T03:38:46.678Z,23.93
2022-08-11T03:42:02.329Z,24.52
2022-08-11T03:44:56.008Z,24.84
2022-08-11T03:47:54.918Z,24.61
2022-08-11T03:50:43.747Z,24.88
2022-08-11T03:53:30.852Z,24.91
2022-08-11T03:56:12.721Z,24.60
2022-08-11T03:59:01.215Z,24.97
2022-08-11T04:02:05.490Z,25.02
2022-08-11T04:04:54.728Z,24.97
2022-08-11T04:07:33.702Z,25.07
2022-08-11T04:10:22.371Z,24.78
2022-08-11T04:13:07.416Z,24.81
2022-08-11T04:16:16.801Z,24.55
2022-08-11T04:18:50.862Z,25.07
2022-08-11T04:21:51.427Z,25.07
2022-08-11T04:24:39.585Z,25.12
2022-08-11T04:27:20.444Z,25.01
2022-08-11T04:30:13.269Z,24.91
2022-08-11T04:33:15.450Z,24.52
2022-08-11T04:36:40.468Z,25.07
2022-08-11T04:39:28.037Z,25.10
2022-08-11T04:42:32.589Z,24.70
2022-08-11T04:45:34.113Z,25.25
2022-08-11T04:48:41.323Z,24.44
2022-08-11T04:51:58.645Z,25.42
2022-08-11T04:55:20.995Z,25.38
2022-08-11T04:58:22.646Z,25.35
2022-08-11T05:01:42.559Z,25.43
2022-08-11T05:04:46.503Z,25.37
2022-08-11T05:07:54.619Z,25.47
2022-08-11T05:10:52.270Z,25.50
2022-08-11T05:14:12.896Z,24.73
2022-08-11T05:17:10.777Z,24.42
2022-08-11T05:19:56.720Z,25.06
2022-08-11T05:22:47.903Z,25.63
2022-08-11T05:26:43.342Z,25.53
2022-08-11T05:28:59.483Z,25.59
2022-08-11T05:31:53.823Z,25.52
2022-08-11T05:34:43.964Z,25.15
2022-08-11T05:37:28.047Z,25.42
2022-08-11T05:40:19.302Z,25.57
2022-08-11T05:43:13.158Z,25.50
2022-08-11T05:46:03.717Z,25.19
2022-08-11T05:48:55.750Z,25.36
2022-08-11T05:51:55.365Z,25.42
2022-08-11T05:54:47.076Z,25.64
2022-08-11T05:57:42.389Z,25.50
2022-08-11T06:00:18.120Z,25.60
2022-08-11T06:02:49.178Z,25.74
2022-08-11T06:05:16.869Z,25.59
2022-08-11T06:07:49.254Z,25.93
2022-08-11T06:10:30.716Z,25.94
2022-08-11T06:12:58.523Z,25.58
2022-08-11T06:15:26.090Z,25.63
2022-08-11T06:17:54.116Z,25.00
2022-08-11T06:20:22.690Z,25.41
2022-08-11T06:22:59.518Z,26.14
2022-08-11T06:25:36.479Z,25.11
2022-08-11T06:28:05.899Z,26.29
2022-08-11T06:30:43.434Z,25.08
2022-08-11T06:33:20.446Z,25.07
2022-08-11T06:36:34.470Z,26.50
2022-08-11T06:39:28.117Z,26.61
2022-08-11T06:42:07.387Z,25.88
2022-08-11T06:44:50.467Z,26.36
2022-08-11T06:47:19.245Z,25.90
2022-08-11T06:50:06.934Z,25.42
2022-08-11T06:52:38.537Z,25.78
2022-08-11T06:55:57.785Z,26.43
2022-08-11T06:58:33.409Z,26.49
2022-08-11T07:01:09.349Z,26.33
2022-08-11T07:03:41.073Z,25.74
2022-08-11T07:07:12.600Z,26.98
2022-08-11T07:10:13.221Z,27.18
2022-08-11T07:13:08.227Z,26.23
2022-08-11T07:16:10.869Z,25.93
2022-08-11T07:18:56.905Z,26.14
2022-08-11T07:22:03.952Z,27.24
2022-08-11T07:25:18.594Z,26.47
2022-08-11T07:28:13.209Z,26.80
2022-08-11T07:30:43.897Z,27.20
2022-08-11T07:34:06.438Z,26.22
2022-08-11T07:36:06.796Z,26.34
2022-08-11T07:38:50.401Z,26.27
2022-08-11T07:41:21.471Z,26.28
2022-08-11T07:43:58.650Z,26.58
2022-08-11T07:46:44.352Z,27.06
2022-08-11T07:49:35.529Z,26.61
2022-08-11T07:52:21.634Z,27.29
2022-08-11T07:54:51.305Z,26.68
2022-08-11T07:58:11.158Z,27.46
2022-08-11T08:00:43.216Z,27.84
2022-08-11T08:03:33.101Z,27.03
2022-08-11T08:06:35.688Z,26.78
2022-08-11T08:09:40.487Z,27.29
2022-08-11T08:12:34.378Z,27.62
2022-08-11T08:15:35.972Z,26.89
2022-08-11T08:18:10.027Z,28.08
2022-08-11T08:21:13.589Z,26.83
2022-08-11T08:23:47.934Z,27.61
2022-08-11T08:26:42.074Z,27.80
2022-08-11T08:29:38.782Z,28.32
2022-08-11T08:32:07.562Z,28.34
2022-08-11T08:34:37.075Z,28.34
2022-08-11T08:37:15.751Z,27.65
2022-08-11T08:39:53.428Z,28.44
2022-08-11T08:42:29.854Z,28.60
2022-08-11T08:45:06.018Z,28.60
2022-08-11T08:47:42.636Z,28.59
2022-08-11T08:50:19.498Z,28.67
2022-08-11T08:52:54.497Z,28.82
2022-08-11T08:55:22.467Z,29.06
2022-08-11T08:57:52.673Z,28.41
2022-08-11T09:00:23.030Z,28.90
2022-08-11T09:02:51.479Z,29.10
2022-08-11T09:05:19.809Z,29.23
2022-08-11T09:07:51.165Z,29.35
2022-08-11T09:10:20.282Z,29.40
2022-08-11T09:12:48.272Z,29.52
2022-08-11T09:15:19.657Z,29.44
2022-08-11T09:17:49.106Z,29.69
2022-08-11T09:20:21.264Z,29.69
2022-08-11T09:26:19.464Z,29.98
2022-08-11T09:28:49.730Z,30.10
2022-08-11T09:31:17.226Z,30.11
2022-08-11T09:33:45.838Z,30.22
2022-08-11T09:36:32.513Z,30.32
2022-08-11T09:39:21.627Z,30.34
2022-08-11T09:42:00.806Z,30.52
2022-08-11T09:44:48.689Z,30.63
2022-08-11T09:47:22.330Z,30.62
2022-08-11T09:49:51.756Z,30.44
2022-08-11T09:52:19.500Z,30.52
2022-08-11T09:54:48.799Z,30.87
2022-08-11T09:57:38.429Z,30.98
2022-08-11T10:00:12.412Z,31.37
2022-08-11T10:02:46.937Z,31.46
2022-08-11T10:05:36.402Z,31.48
2022-08-11T10:08:05.047Z,31.34
2022-08-11T10:10:36.469Z,31.58
2022-08-11T10:14:30.315Z,31.83
2022-08-11T10:16:15.599Z,31.95
2022-08-11T10:18:52.580Z,31.89
2022-08-11T10:21:37.815Z,32.13
2022-08-11T10:24:25.678Z,32.25
2022-08-11T10:26:55.681Z,32.42
2022-08-11T10:29:45.260Z,32.58
2022-08-11T10:32:57.586Z,32.60
2022-08-11T10:35:30.644Z,33.05
2022-08-11T10:38:07.414Z,32.76
2022-08-11T10:41:09.613Z,33.03
2022-08-11T10:44:00.382Z,33.05
2022-08-11T10:46:47.198Z,32.44
2022-08-11T10:49:14.301Z,33.66
2022-08-11T10:52:00.002Z,33.74
2022-08-11T10:54:45.907Z,34.01
2022-08-11T10:57:33.845Z,34.01
2022-08-11T11:00:01.132Z,34.03
2022-08-11T11:02:29.137Z,33.95
2022-08-11T11:05:15.374Z,33.91
2022-08-11T11:07:56.460Z,34.22
2022-08-11T11:10:23.318Z,34.04
2022-08-11T11:13:15.702Z,33.71
2022-08-11T11:16:05.571Z,33.96
2022-08-11T11:18:36.850Z,33.83
2022-08-11T11:21:07.976Z,33.64
2022-08-11T11:23:47.636Z,34.18
2022-08-11T11:26:40.949Z,34.33
2022-08-11T11:29:49.819Z,34.74
2022-08-11T11:32:49.421Z,34.88
2022-08-11T11:35:16.341Z,34.94
2022-08-11T11:38:01.896Z,34.86
2022-08-11T11:40:32.720Z,34.34
2022-08-11T11:43:01.755Z,35.14
2022-08-11T11:45:28.930Z,34.30
2022-08-11T11:47:59.106Z,34.73
2022-08-11T11:50:32.756Z,35.46
2022-08-11T11:53:02.031Z,34.86
2022-08-11T11:55:30.635Z,36.06
2022-08-11T11:58:19.065Z,35.09
2022-08-11T12:01:06.311Z,36.05
2022-08-11T12:03:35.961Z,36.53
2022-08-11T12:06:03.778Z,36.47
2022-08-11T12:08:32.054Z,36.71
2022-08-11T12:11:20.617Z,36.26
2022-08-11T12:13:53.011Z,36.94
2022-08-11T12:16:34.149Z,36.90
2022-08-11T12:19:05.755Z,37.14
2022-08-11T12:21:34.707Z,37.29
2022-08-11T12:24:21.581Z,36.83
2022-08-11T12:27:14.884Z,37.19
2022-08-11T12:29:41.447Z,37.18
2022-08-11T12:32:11.455Z,37.72
2022-08-11T12:34:38.313Z,37.59
2022-08-11T12:37:13.222Z,37.81
2022-08-11T12:40:43.100Z,37.84
2022-08-11T12:43:21.018Z,38.21
2022-08-11T12:45:54.123Z,38.34
2022-08-11T12:48:59.636Z,38.73
2022-08-11T12:52:11.036Z,38.59
2022-08-11T12:54:47.321Z,38.97
2022-08-11T12:57:56.887Z,38.64
2022-08-11T13:00:44.645Z,38.44
2022-08-11T13:03:32.481Z,38.73
2022-08-11T13:06:02.772Z,39.06
2022-08-11T13:08:33.293Z,39.25
2022-08-11T13:11:21.603Z,39.39
2022-08-11T13:13:53.507Z,39.25
2022-08-11T13:16:26.592Z,39.89
2022-08-11T13:18:54.016Z,39.82
2022-08-11T13:21:21.994Z,39.52
2022-08-11T13:24:00.349Z,39.98
2022-08-11T13:26:49.362Z,39.86
2022-08-11T13:29:28.270Z,39.62
2022-08-11T13:31:59.757Z,39.28
2022-08-11T13:34:28.857Z,39.97
2022-08-11T13:36:59.436Z,38.91
2022-08-11T13:39:28.796Z,39.10
2022-08-11T13:41:57.581Z,38.48
2022-08-11T13:44:30.176Z,38.05
2022-08-11T13:47:01.372Z,37.68
2022-08-11T13:49:33.939Z,37.33
2022-08-11T13:52:01.449Z,37.25
2022-08-11T13:54:31.436Z,36.70
2022-08-11T13:57:02.194Z,36.38
2022-08-11T13:59:31.147Z,36.02
2022-08-11T14:02:21.692Z,35.30
2022-08-11T14:04:56.288Z,35.78
2022-08-11T14:07:27.696Z,35.06
2022-08-11T14:09:59.171Z,35.40
2022-08-11T14:12:47.746Z,34.36
2022-08-11T14:15:20.550Z,35.13
2022-08-11T14:17:52.427Z,35.08
2022-08-11T14:20:38.966Z,35.13
2022-08-11T14:23:11.047Z,34.00
2022-08-11T14:26:01.892Z,33.83
2022-08-11T14:28:37.394Z,34.80
2022-08-11T14:31:09.431Z,33.79
2022-08-11T14:33:58.062Z,34.54
2022-08-11T14:36:26.483Z,33.95
2022-08-11T14:38:54.824Z,33.67
2022-08-11T14:42:07.456Z,33.42
2022-08-11T14:44:51.195Z,33.98
2022-08-11T14:47:24.256Z,34.22
2022-08-11T14:50:02.562Z,34.18
2022-08-11T14:52:39.005Z,34.37
2022-08-11T14:55:26.477Z,34.34
2022-08-11T14:57:56.720Z,34.44
2022-08-11T15:00:25.081Z,34.33
2022-08-11T15:03:10.643Z,34.11
2022-08-11T15:05:55.975Z,34.11
2022-08-11T15:08:45.970Z,33.91
2022-08-11T15:11:34.062Z,33.53
2022-08-11T15:14:03.362Z,32.93
2022-08-11T15:16:48.512Z,34.07
2022-08-11T15:19:16.874Z,33.25
2022-08-11T15:22:02.038Z,33.75
2022-08-11T15:24:32.733Z,34.01
2022-08-11T15:27:19.458Z,33.61
2022-08-11T15:30:06.554Z,33.71
2022-08-11T15:32:53.672Z,33.61
2022-08-11T15:35:38.983Z,33.18
2022-08-11T15:38:11.758Z,33.28
2022-08-11T15:41:09.426Z,33.29
2022-08-11T15:44:02.086Z,33.09
2022-08-11T15:46:38.515Z,33.35
2022-08-11T15:49:21.742Z,33.25
2022-08-11T15:52:02.596Z,32.70
2022-08-11T15:54:32.133Z,33.11
2022-08-11T15:57:04.313Z,33.27
2022-08-11T15:59:52.472Z,32.99
2022-08-11T16:02:40.363Z,32.94
2022-08-11T16:05:13.261Z,32.19
2022-08-11T16:07:42.947Z,32.99
2022-08-11T16:10:14.025Z,32.84
2022-08-11T16:13:20.496Z,32.89
2022-08-11T16:16:12.786Z,32.91
2022-08-11T16:18:44.711Z,32.78
2022-08-11T16:21:34.129Z,32.14
2022-08-11T16:24:06.032Z,32.14
2022-08-11T16:27:11.282Z,31.84
2022-08-11T16:29:25.114Z,32.53
2022-08-11T16:32:11.903Z,32.77
2022-08-11T16:34:58.441Z,32.54
2022-08-11T16:37:44.710Z,32.03
2022-08-11T16:40:12.745Z,32.31
2022-08-11T16:43:09.061Z,32.35
2022-08-11T16:45:57.671Z,31.99
2022-08-11T16:48:35.575Z,32.43
2022-08-11T16:51:06.486Z,32.12
2022-08-11T16:54:03.352Z,31.45
2022-08-11T16:56:25.244Z,32.61
2022-08-11T16:59:15.836Z,32.49
2022-08-11T17:01:53.277Z,32.47
2022-08-11T17:04:43.309Z,32.20
2022-08-11T17:07:40.487Z,32.29
2022-08-11T17:10:50.898Z,32.22
2022-08-11T17:13:26.173Z,31.78
2022-08-11T17:16:06.844Z,31.07
2022-08-11T17:18:57.291Z,31.23
2022-08-11T17:21:27.949Z,32.22
2022-08-11T17:23:59.100Z,31.99
2022-08-11T17:26:57.015Z,32.07
2022-08-11T17:29:53.746Z,31.76
2022-08-11T17:33:10.704Z,31.42
2022-08-11T17:35:40.832Z,31.78
2022-08-11T17:38:15.816Z,31.73
2022-08-11T17:41:06.289Z,31.75
2022-08-11T17:43:53.138Z,31.78
2022-08-11T17:46:38.880Z,31.60
2022-08-11T17:49:09.992Z,31.62
2022-08-11T17:51:56.305Z,31.38
2022-08-11T17:54:44.641Z,31.39
2022-08-11T17:57:33.144Z,30.37
2022-08-11T18:00:11.205Z,31.39
2022-08-11T18:02:58.948Z,30.39
2022-08-11T18:05:32.024Z,30.98
2022-08-11T18:08:19.952Z,31.05
2022-08-11T18:11:06.598Z,30.88
2022-08-11T18:13:56.080Z,30.74
2022-08-11T18:16:41.741Z,30.66
2022-08-11T18:19:28.226Z,30.98
2022-08-11T18:22:51.986Z,30.86
2022-08-11T18:25:45.662Z,29.82
2022-08-11T18:28:34.110Z,30.59
2022-08-11T18:31:21.358Z,30.71
2022-08-11T18:34:15.745Z,30.58
2022-08-11T18:37:07.270Z,30.37
2022-08-11T18:40:01.345Z,30.28
2022-08-11T18:42:50.315Z,30.65
2022-08-11T18:45:45.151Z,30.53
2022-08-11T18:48:37.251Z,30.58
2022-08-11T18:51:31.717Z,30.44
2022-08-11T18:54:27.554Z,30.49
2022-08-11T18:57:16.430Z,29.09
2022-08-11T19:00:04.171Z,29.75
2022-08-11T19:02:51.453Z,30.26
2022-08-11T19:06:36.945Z,30.40
2022-08-11T19:08:59.904Z,30.33
2022-08-11T19:11:48.784Z,30.28
2022-08-11T19:14:38.037Z,30.17
2022-08-11T19:17:42.912Z,30.08
2022-08-11T19:20:34.688Z,30.01
2022-08-11T19:23:22.058Z,29.86
2022-08-11T19:26:08.341Z,29.44
2022-08-11T19:28:58.206Z,29.76
2022-08-11T19:31:45.326Z,29.76
2022-08-11T19:34:35.981Z,29.92
2022-08-11T19:37:25.106Z,29.15
2022-08-11T19:40:13.355Z,29.55
2022-08-11T19:43:00.564Z,29.78
2022-08-11T19:45:52.802Z,29.43
2022-08-11T19:48:43.214Z,29.67
2022-08-11T19:51:30.489Z,29.37
2022-08-11T19:54:17.245Z,29.37
2022-08-11T19:57:03.853Z,29.18
2022-08-11T19:59:50.965Z,29.35
2022-08-11T20:02:37.299Z,29.40
2022-08-11T20:05:24.936Z,29.36
2022-08-11T20:08:12.657Z,29.28
2022-08-11T20:10:59.071Z,29.14
2022-08-11T20:13:45.528Z,28.92
2022-08-11T20:16:34.779Z,29.12
2022-08-11T20:19:25.949Z,28.97
2022-08-11T20:22:28.488Z,28.85
2022-08-11T20:25:14.787Z,28.17
2022-08-11T20:28:01.716Z,28.59
2022-08-11T20:30:51.773Z,28.58
2022-08-11T20:33:39.569Z,28.33
2022-08-11T20:36:26.431Z,28.41
2022-08-11T20:39:13.709Z,28.39
2022-08-11T20:42:00.399Z,28.45
2022-08-11T20:44:48.014Z,28.37
2022-08-11T20:47:59.240Z,28.32
2022-08-11T20:50:45.733Z,28.49
2022-08-11T20:53:35.643Z,28.39
2022-08-11T20:56:28.609Z,28.27
2022-08-11T20:59:38.342Z,28.23
2022-08-11T21:02:35.628Z,27.91
2022-08-11T21:06:08.537Z,27.85
2022-08-11T21:08:29.157Z,27.96
2022-08-11T21:11:15.239Z,28.12
2022-08-11T21:14:14.173Z,28.12
2022-08-11T21:17:01.041Z,28.08
2022-08-11T21:20:10.832Z,27.88
2022-08-11T21:23:05.291Z,27.76
2022-08-11T21:25:55.702Z,27.90
2022-08-11T21:28:45.925Z,27.91
2022-08-11T21:31:32.626Z,27.94
2022-08-11T21:34:19.222Z,28.16
2022-08-11T21:37:05.371Z,28.24
2022-08-11T21:39:53.242Z,28.17
2022-08-11T21:42:40.037Z,28.06
2022-08-11T21:45:27.679Z,27.63
2022-08-11T21:48:14.890Z,27.71
2022-08-11T21:51:00.049Z,26.98
2022-08-11T21:53:46.354Z,27.59
2022-08-11T21:56:32.974Z,27.75
2022-08-11T21:59:19.345Z,27.48
2022-08-11T22:02:12.608Z,27.68
2022-08-11T22:04:59.758Z,27.64
2022-08-11T22:07:45.877Z,27.63
2022-08-11T22:10:41.360Z,27.64
2022-08-11T22:13:30.702Z,27.66
2022-08-11T22:16:18.232Z,27.63
2022-08-11T22:19:05.786Z,27.77
2022-08-11T22:22:03.472Z,27.31
2022-08-11T22:24:51.398Z,27.73
2022-08-11T22:27:39.901Z,27.73
2022-08-11T22:30:30.063Z,27.37
2022-08-11T22:33:17.381Z,27.53
2022-08-11T22:36:13.516Z,27.60
2022-08-11T22:39:01.538Z,27.64
2022-08-11T22:41:47.364Z,27.65
2022-08-11T22:44:32.789Z,27.20
2022-08-11T22:47:20.949Z,27.31
2022-08-11T22:50:14.266Z,27.56
2022-08-11T22:53:01.724Z,27.38
2022-08-11T22:55:51.529Z,27.63
2022-08-11T22:58:40.059Z,27.28
2022-08-11T23:01:26.067Z,27.39
2022-08-11T23:04:11.908Z,27.34
2022-08-11T23:07:01.014Z,27.46
2022-08-11T23:09:46.137Z,27.42
2022-08-11T23:12:31.875Z,27.47
2022-08-11T23:15:19.089Z,27.14
2022-08-11T23:18:05.178Z,27.44
2022-08-11T23:20:56.639Z,27.25
2022-08-11T23:23:43.903Z,27.39
2022-08-11T23:26:29.950Z,27.40
2022-08-11T23:29:16.513Z,27.24
2022-08-11T23:32:02.805Z,27.41
2022-08-11T23:35:37.132Z,27.40
2022-08-11T23:38:00.272Z,27.33
2022-08-11T23:40:46.131Z,27.37
2022-08-11T23:43:42.586Z,27.37
2022-08-11T23:46:28.515Z,27.37
2022-08-11T23:49:22.725Z,27.42
2022-08-11T23:52:09.468Z,27.39
2022-08-11T23:54:55.170Z,26.87
2022-08-11T23:57:47.732Z,27.48
